createdAt,value
2023-01-02T00:00:57.011Z,2.80
2023-01-02T00:03:44.023Z,2.40
2023-01-02T00:06:34.436Z,3.10
2023-01-02T00:09:21.129Z,2.93
2023-01-02T00:12:07.770Z,2.70
2023-01-02T00:14:54.131Z,2.80
2023-01-02T00:17:41.808Z,3.03
2023-01-02T00:20:28.283Z,3.50
2023-01-02T00:23:14.724Z,3.00
2023-01-02T00:26:01.365Z,2.80
2023-01-02T00:28:48.161Z,2.90
2023-01-02T00:31:34.640Z,3.00
2023-01-02T00:34:22.845Z,2.83
2023-01-02T00:37:09.358Z,2.70
2023-01-02T00:39:55.873Z,3.07
2023-01-02T00:42:42.374Z,2.97
2023-01-02T00:45:29.104Z,2.87
2023-01-02T00:48:15.903Z,3.23
2023-01-02T00:51:03.667Z,2.63
2023-01-02T00:53:50.025Z,2.77
2023-01-02T00:56:36.589Z,2.80
2023-01-02T00:59:22.861Z,2.93
2023-01-02T01:02:09.618Z,3.30
2023-01-02T01:04:56.418Z,2.80
2023-01-02T01:07:44.195Z,3.00
2023-01-02T01:10:30.689Z,2.50
2023-01-02T01:13:17.224Z,2.80
2023-01-02T01:16:08.082Z,2.77
2023-01-02T01:18:56.588Z,2.70
2023-01-02T01:21:43.133Z,2.80
2023-01-02T01:24:31.165Z,2.70
2023-01-02T01:27:18.069Z,3.07
2023-01-02T01:30:05.025Z,3.47
2023-01-02T01:32:51.502Z,2.83
2023-01-02T01:35:37.836Z,2.80
2023-01-02T01:38:24.170Z,2.87
2023-01-02T01:41:14.699Z,2.93
2023-01-02T01:44:03.258Z,3.20
2023-01-02T01:46:49.881Z,2.90
2023-01-02T01:49:36.237Z,3.17
2023-01-02T01:52:26.374Z,3.20
2023-01-02T01:55:18.158Z,3.13
2023-01-02T01:58:11.729Z,2.83
2023-01-02T02:00:58.945Z,2.87
2023-01-02T02:03:48.958Z,2.83
2023-01-02T02:06:35.625Z,3.10
2023-01-02T02:09:24.828Z,2.77
2023-01-02T02:12:12.533Z,2.60
2023-01-02T02:15:00.708Z,2.93
2023-01-02T02:17:57.451Z,3.30
2023-01-02T02:20:51.216Z,3.20
2023-01-02T02:24:03.630Z,3.03
2023-01-02T02:27:13.529Z,2.83
2023-01-02T02:30:14.003Z,2.60
2023-01-02T02:33:22.439Z,2.30
2023-01-02T02:36:18.546Z,2.30
2023-01-02T02:39:17.990Z,2.70
2023-01-02T02:42:13.980Z,2.77
2023-01-02T02:45:04.975Z,2.47
2023-01-02T02:47:59.381Z,2.60
2023-01-02T02:50:51.894Z,2.87
2023-01-02T02:53:44.109Z,2.63
2023-01-02T02:56:32.322Z,2.17
2023-01-02T02:59:19.663Z,2.40
2023-01-02T03:02:06.797Z,2.37
2023-01-02T03:04:59.193Z,2.33
2023-01-02T03:07:53.113Z,2.40
2023-01-02T03:10:48.766Z,2.50
2023-01-02T03:13:44.734Z,2.20
2023-01-02T03:16:36.895Z,2.20
2023-01-02T03:19:29.042Z,2.50
2023-01-02T03:22:20.954Z,2.27
2023-01-02T03:25:10.188Z,2.30
2023-01-02T03:27:58.722Z,2.10
2023-01-02T03:30:49.434Z,2.43
2023-01-02T03:33:40.714Z,3.23
2023-01-02T03:36:31.520Z,2.50
2023-01-02T03:39:21.908Z,2.63
2023-01-02T03:42:12.700Z,2.27
2023-01-02T03:45:03.466Z,2.43
2023-01-02T03:47:55.374Z,2.73
2023-01-02T03:50:48.345Z,1.97
2023-01-02T03:53:37.666Z,3.23
2023-01-02T03:56:28.229Z,2.90
2023-01-02T03:59:21.033Z,2.40
2023-01-02T04:02:12.868Z,2.53
2023-01-02T04:05:00.954Z,2.70
2023-01-02T04:07:54.014Z,2.30
2023-01-02T04:10:43.687Z,2.40
2023-01-02T04:13:36.417Z,2.90
2023-01-02T04:16:27.650Z,2.37
2023-01-02T04:19:18.168Z,2.27
2023-01-02T04:22:10.835Z,2.43
2023-01-02T04:25:02.441Z,2.53
2023-01-02T04:27:56.069Z,2.10
2023-01-02T04:30:50.946Z,2.50
2023-01-02T04:33:42.825Z,2.60
2023-01-02T04:36:29.479Z,2.43
2023-01-02T04:39:16.276Z,3.00
2023-01-02T04:42:02.717Z,2.47
2023-01-02T04:44:48.988Z,2.60
2023-01-02T04:47:36.892Z,2.57
2023-01-02T04:50:23.472Z,2.50
2023-01-02T04:53:11.034Z,2.53
2023-01-02T04:55:57.879Z,2.30
2023-01-02T04:58:45.695Z,2.63
2023-01-02T05:01:32.446Z,2.20
2023-01-02T05:04:20.773Z,2.60
2023-01-02T05:07:07.323Z,2.00
2023-01-02T05:09:53.986Z,2.63
2023-01-02T05:12:40.895Z,3.03
2023-01-02T05:15:27.982Z,2.30
2023-01-02T05:18:14.585Z,2.60
2023-01-02T05:21:28.165Z,2.60
2023-01-02T05:24:13.914Z,2.27
2023-01-02T05:27:00.336Z,2.50
2023-01-02T05:29:46.765Z,2.30
2023-01-02T05:32:33.058Z,2.20
2023-01-02T05:35:19.439Z,2.53
2023-01-02T05:38:07.065Z,2.20
2023-01-02T05:41:01.326Z,2.17
2023-01-02T05:43:47.932Z,2.73
2023-01-02T05:46:34.328Z,2.60
2023-01-02T05:49:20.754Z,2.33
2023-01-02T05:52:07.096Z,2.10
2023-01-02T05:54:54.714Z,2.83
2023-01-02T05:57:41.180Z,2.33
2023-01-02T06:00:27.717Z,2.73
2023-01-02T06:03:14.187Z,2.30
2023-01-02T06:06:05.058Z,2.43
2023-01-02T06:08:51.486Z,2.90
2023-01-02T06:11:39.109Z,2.20
2023-01-02T06:14:25.736Z,2.30
2023-01-02T06:17:11.984Z,3.20
2023-01-02T06:19:58.282Z,2.70
2023-01-02T06:22:44.561Z,2.27
2023-01-02T06:25:31.036Z,2.33
2023-01-02T06:28:18.770Z,2.40
2023-01-02T06:31:08.828Z,2.77
2023-01-02T06:33:55.825Z,2.90
2023-01-02T06:36:42.339Z,2.67
2023-01-02T06:39:29.292Z,2.30
2023-01-02T06:42:15.602Z,2.30
2023-01-02T06:45:03.411Z,2.60
2023-01-02T06:47:49.900Z,2.77
2023-01-02T06:50:37.560Z,2.57
2023-01-02T06:53:24.304Z,2.63
2023-01-02T06:56:12.442Z,2.40
2023-01-02T06:59:00.466Z,2.17
2023-01-02T07:01:48.914Z,2.20
2023-01-02T07:04:35.722Z,2.60
2023-01-02T07:07:22.068Z,2.40
2023-01-02T07:10:09.516Z,2.57
2023-01-02T07:12:56.206Z,2.40
2023-01-02T07:15:42.710Z,2.10
2023-01-02T07:18:30.453Z,2.37
2023-01-02T07:21:19.032Z,2.70
2023-01-02T07:24:05.937Z,2.50
2023-01-02T07:26:52.329Z,2.03
2023-01-02T07:29:38.805Z,2.53
2023-01-02T07:32:27.743Z,2.23
2023-01-02T07:35:16.188Z,1.97
2023-01-02T07:38:02.525Z,2.30
2023-01-02T07:40:48.976Z,2.20
2023-01-02T07:43:35.356Z,1.90
2023-01-02T07:46:22.214Z,2.27
2023-01-02T07:49:08.859Z,1.70
2023-01-02T07:51:56.726Z,1.90
2023-01-02T07:54:43.091Z,1.90
2023-01-02T07:57:31.136Z,2.53
2023-01-02T08:00:18.640Z,2.10
2023-01-02T08:03:05.328Z,2.33
2023-01-02T08:05:52.099Z,2.20
2023-01-02T08:08:40.685Z,2.20
2023-01-02T08:11:27.394Z,2.30
2023-01-02T08:14:18.333Z,2.23
2023-01-02T08:17:08.239Z,1.90
2023-01-02T08:19:55.031Z,2.40
2023-01-02T08:22:41.518Z,2.10
2023-01-02T08:25:29.215Z,1.80
2023-01-02T08:28:15.840Z,2.20
2023-01-02T08:31:02.795Z,2.50
2023-01-02T08:33:49.345Z,2.33
2023-01-02T08:36:35.756Z,2.30
2023-01-02T08:39:22.109Z,2.40
2023-01-02T08:42:10.341Z,2.63
2023-01-02T08:44:56.758Z,1.77
2023-01-02T08:47:43.230Z,2.13
2023-01-02T08:50:29.557Z,1.70
2023-01-02T08:53:16.060Z,1.90
2023-01-02T08:56:20.077Z,1.90
2023-01-02T08:59:09.490Z,2.33
2023-01-02T09:01:56.210Z,2.20
2023-01-02T09:04:43.015Z,2.17
2023-01-02T09:07:32.356Z,2.80
2023-01-02T09:10:18.725Z,2.17
2023-01-02T09:13:05.155Z,2.60
2023-01-02T09:15:53.429Z,2.37
2023-01-02T09:18:41.200Z,2.97
2023-01-02T09:21:28.014Z,5.37
2023-01-02T09:24:14.493Z,4.73
2023-01-02T09:27:01.243Z,2.80
2023-01-02T09:29:47.510Z,2.40
2023-01-02T09:32:35.308Z,2.27
2023-01-02T09:35:22.411Z,4.57
2023-01-02T09:38:08.977Z,2.67
2023-01-02T09:40:55.663Z,4.20
2023-01-02T09:43:47.608Z,3.17
2023-01-02T09:46:41.289Z,3.00
2023-01-02T09:49:32.010Z,2.37
2023-01-02T09:52:21.679Z,2.13
2023-01-02T09:55:16.341Z,2.70
2023-01-02T09:58:16.755Z,2.50
2023-01-02T10:01:04.828Z,2.60
2023-01-02T10:04:00.326Z,2.40
2023-01-02T10:06:57.257Z,2.00
2023-01-02T10:09:53.939Z,2.30
2023-01-02T10:12:51.906Z,2.40
2023-01-02T10:15:40.931Z,2.30
2023-01-02T10:18:32.755Z,2.53
2023-01-02T10:21:24.678Z,2.23
2023-01-02T10:24:17.458Z,2.20
2023-01-02T10:27:07.053Z,2.37
2023-01-02T10:30:02.811Z,2.53
2023-01-02T10:32:56.249Z,2.00
2023-01-02T10:35:45.454Z,1.73
2023-01-02T10:38:36.350Z,1.80
2023-01-02T10:41:24.283Z,1.90
2023-01-02T10:44:19.006Z,1.47
2023-01-02T10:47:14.955Z,1.60
2023-01-02T10:50:02.913Z,1.40
2023-01-02T10:52:51.828Z,1.27
2023-01-02T10:55:41.556Z,1.40
2023-01-02T10:58:31.464Z,1.17
2023-01-02T11:01:19.940Z,1.10
2023-01-02T11:04:12.168Z,1.63
2023-01-02T11:07:02.391Z,1.90
2023-01-02T11:09:56.535Z,1.53
2023-01-02T11:12:48.305Z,1.50
2023-01-02T11:15:44.703Z,1.43
2023-01-02T11:18:34.173Z,1.63
2023-01-02T11:21:30.031Z,1.30
2023-01-02T11:24:19.722Z,1.30
2023-01-02T11:27:06.147Z,1.20
2023-01-02T11:29:52.671Z,1.10
2023-01-02T11:32:42.402Z,1.00
2023-01-02T11:35:40.687Z,0.60
2023-01-02T11:38:41.017Z,0.60
2023-01-02T11:41:50.167Z,0.57
2023-01-02T11:44:44.920Z,0.57
2023-01-02T11:47:34.299Z,0.40
2023-01-02T11:50:25.974Z,0.67
2023-01-02T11:53:19.815Z,0.60
2023-01-02T11:56:12.035Z,0.70
2023-01-02T11:59:03.009Z,0.63
2023-01-02T12:01:56.740Z,0.40
2023-01-02T12:04:43.466Z,0.40
2023-01-02T12:07:43.323Z,0.50
2023-01-02T12:10:43.063Z,0.43
2023-01-02T12:13:43.312Z,0.70
2023-01-02T12:16:39.297Z,0.70
2023-01-02T12:20:05.692Z,0.50
2023-01-02T12:23:25.750Z,0.60
2023-01-02T12:26:15.014Z,0.60
2023-01-02T12:29:46.194Z,0.80
2023-01-02T12:33:14.216Z,0.70
2023-01-02T12:36:20.783Z,0.73
2023-01-02T12:39:34.394Z,0.83
2023-01-02T12:42:35.808Z,0.90
2023-01-02T12:45:28.363Z,1.10
2023-01-02T12:48:39.901Z,0.80
2023-01-02T12:51:31.944Z,0.80
2023-01-02T12:54:36.585Z,1.00
2023-01-02T12:57:29.912Z,1.00
2023-01-02T13:00:39.826Z,1.10
2023-01-02T13:03:47.235Z,0.80
2023-01-02T13:06:48.544Z,1.10
2023-01-02T13:09:40.226Z,0.97
2023-01-02T13:12:29.589Z,1.10
2023-01-02T13:15:22.099Z,0.90
2023-01-02T13:18:12.498Z,1.00
2023-01-02T13:21:06.723Z,1.17
2023-01-02T13:23:53.743Z,1.10
2023-01-02T13:26:41.875Z,1.13
2023-01-02T13:29:30.731Z,1.73
2023-01-02T13:32:28.702Z,1.10
2023-01-02T13:35:15.289Z,1.10
2023-01-02T13:38:05.776Z,1.40
2023-01-02T13:40:56.859Z,1.10
2023-01-02T13:43:52.006Z,1.23
2023-01-02T13:49:51.614Z,1.20
2023-01-02T13:52:39.945Z,1.70
2023-01-02T13:55:32.187Z,1.53
2023-01-02T13:58:37.556Z,1.63
2023-01-02T14:02:15.484Z,1.70
2023-01-02T14:05:48.765Z,1.80
2023-01-02T14:08:37.190Z,1.70
2023-01-02T14:11:29.479Z,1.90
2023-01-02T14:14:21.937Z,2.10
2023-01-02T14:17:19.515Z,1.90
2023-01-02T14:20:22.394Z,1.97
2023-01-02T14:23:11.133Z,1.73
2023-01-02T14:25:57.994Z,2.10
2023-01-02T14:28:44.491Z,2.20
2023-01-02T14:31:34.871Z,2.20
2023-01-02T14:34:27.200Z,2.10
2023-01-02T14:37:28.121Z,2.10
2023-01-02T14:40:34.251Z,2.37
2023-01-02T14:43:32.555Z,2.10
2023-01-02T14:46:22.630Z,2.30
2023-01-02T14:49:25.317Z,2.50
2023-01-02T14:52:18.474Z,2.00
2023-01-02T14:55:09.844Z,2.40
2023-01-02T14:58:00.323Z,2.07
2023-01-02T15:00:49.778Z,2.00
2023-01-02T15:03:48.914Z,2.17
2023-01-02T15:06:41.782Z,2.40
2023-01-02T15:09:33.601Z,3.77
2023-01-02T15:12:41.736Z,3.10
2023-01-02T15:15:29.441Z,2.20
2023-01-02T15:18:21.342Z,2.20
2023-01-02T15:21:10.623Z,2.20
2023-01-02T15:24:00.080Z,3.80
2023-01-02T15:26:48.071Z,2.53
2023-01-02T15:29:34.650Z,2.80
2023-01-02T15:32:24.152Z,2.43
2023-01-02T15:35:12.924Z,2.47
2023-01-02T15:37:59.232Z,2.80
2023-01-02T15:40:46.403Z,2.50
2023-01-02T15:43:53.679Z,2.20
2023-01-02T15:46:40.534Z,2.63
2023-01-02T15:49:27.936Z,3.00
2023-01-02T15:52:21.472Z,2.00
2023-01-02T15:55:15.024Z,2.47
2023-01-02T15:58:13.223Z,3.97
2023-01-02T16:01:18.477Z,4.40
2023-01-02T16:04:06.320Z,2.80
2023-01-02T16:06:52.819Z,2.80
2023-01-02T16:09:39.454Z,3.47
2023-01-02T16:12:26.023Z,3.00
2023-01-02T16:15:12.541Z,3.10
2023-01-02T16:18:00.597Z,3.97
2023-01-02T16:20:50.012Z,3.97
2023-01-02T16:23:40.286Z,4.13
2023-01-02T16:26:33.229Z,4.20
2023-01-02T16:29:22.724Z,4.23
2023-01-02T16:32:28.543Z,4.53
2023-01-02T16:35:22.621Z,3.90
2023-01-02T16:38:21.373Z,3.47
2023-01-02T16:41:12.614Z,7.53
2023-01-02T16:43:59.325Z,4.47
2023-01-02T16:46:48.853Z,2.87
2023-01-02T16:49:38.464Z,5.50
2023-01-02T16:52:26.200Z,4.30
2023-01-02T16:55:16.986Z,2.77
2023-01-02T16:58:03.626Z,2.83
2023-01-02T17:00:50.690Z,4.30
2023-01-02T17:03:37.056Z,3.43
2023-01-02T17:06:24.471Z,3.20
2023-01-02T17:09:12.244Z,3.93
2023-01-02T17:12:01.804Z,7.13
2023-01-02T17:14:49.363Z,6.90
2023-01-02T17:17:36.038Z,6.17
2023-01-02T17:20:22.420Z,4.20
2023-01-02T17:23:08.994Z,3.50
2023-01-02T17:25:57.022Z,3.43
2023-01-02T17:28:43.536Z,3.00
2023-01-02T17:31:29.891Z,3.17
2023-01-02T17:34:16.274Z,3.23
2023-01-02T17:37:02.790Z,3.67
2023-01-02T17:39:49.062Z,3.00
2023-01-02T17:42:37.207Z,3.07
2023-01-02T17:45:24.588Z,3.47
2023-01-02T17:48:13.547Z,3.30
2023-01-02T17:51:01.654Z,3.50
2023-01-02T17:53:48.383Z,3.40
2023-01-02T17:56:34.765Z,3.57
2023-01-02T17:59:22.543Z,3.40
2023-01-02T18:02:11.076Z,3.27
2023-01-02T18:04:58.096Z,3.67
2023-01-02T18:07:44.466Z,4.40
2023-01-02T18:10:33.139Z,4.30
2023-01-02T18:13:19.952Z,4.17
2023-01-02T18:16:14.481Z,3.50
2023-01-02T18:19:04.167Z,4.10
2023-01-02T18:21:50.683Z,4.23
2023-01-02T18:24:37.677Z,4.20
2023-01-02T18:27:27.506Z,4.60
2023-01-02T18:30:18.560Z,5.20
2023-01-02T18:33:13.929Z,5.03
2023-01-02T18:36:03.330Z,4.37
2023-01-02T18:38:51.190Z,4.30
2023-01-02T18:41:39.875Z,3.77
2023-01-02T18:44:28.782Z,3.87
2023-01-02T18:47:26.013Z,3.93
2023-01-02T18:50:32.111Z,3.70
2023-01-02T18:53:19.973Z,4.17
2023-01-02T18:56:14.293Z,4.27
2023-01-02T18:59:06.109Z,4.40
2023-01-02T19:01:55.331Z,3.90
2023-01-02T19:04:41.870Z,4.80
2023-01-02T19:07:32.261Z,4.10
2023-01-02T19:10:36.635Z,7.67
2023-01-02T19:13:24.707Z,5.20
2023-01-02T19:16:14.366Z,7.13
2023-01-02T19:19:00.718Z,4.30
2023-01-02T19:21:48.385Z,3.57
2023-01-02T19:24:37.535Z,5.87
2023-01-02T19:27:26.916Z,7.80
2023-01-02T19:30:29.548Z,7.30
2023-01-02T19:33:39.145Z,7.50
2023-01-02T19:36:36.533Z,4.50
2023-01-02T19:39:27.701Z,5.07
2023-01-02T19:42:21.940Z,3.97
2023-01-02T19:45:12.012Z,4.13
2023-01-02T19:47:58.271Z,5.00
2023-01-02T19:50:44.730Z,7.97
2023-01-02T19:53:31.165Z,6.53
2023-01-02T19:56:17.675Z,5.40
2023-01-02T19:59:09.442Z,7.20
2023-01-02T20:01:59.307Z,4.83
2023-01-02T20:04:46.745Z,3.20
2023-01-02T20:07:33.151Z,2.93
2023-01-02T20:10:19.938Z,2.30
2023-01-02T20:13:06.303Z,2.33
2023-01-02T20:15:54.563Z,2.60
2023-01-02T20:18:40.873Z,4.37
2023-01-02T20:21:29.382Z,3.80
2023-01-02T20:24:15.785Z,2.13
2023-01-02T20:27:03.838Z,3.70
2023-01-02T20:29:50.941Z,2.80
2023-01-02T20:32:39.080Z,5.10
2023-01-02T20:35:25.801Z,3.73
2023-01-02T20:38:12.112Z,4.47
2023-01-02T20:40:58.749Z,2.20
2023-01-02T20:43:45.571Z,6.90
2023-01-02T20:46:32.519Z,3.80
2023-01-02T20:49:20.800Z,4.00
2023-01-02T20:52:07.987Z,4.47
2023-01-02T20:54:54.482Z,2.60
2023-01-02T20:57:40.818Z,2.37
2023-01-02T21:00:28.687Z,2.13
2023-01-02T21:03:15.347Z,2.10
2023-01-02T21:06:03.551Z,2.55
2023-01-02T21:08:50.279Z,2.17
2023-01-02T21:11:36.938Z,2.70
2023-01-02T21:14:23.349Z,2.00
2023-01-02T21:17:09.751Z,2.20
2023-01-02T21:19:56.092Z,2.20
2023-01-02T21:22:43.837Z,2.10
2023-01-02T21:25:30.465Z,2.23
2023-01-02T21:28:18.330Z,2.50
2023-01-02T21:31:05.260Z,2.17
2023-01-02T21:33:51.957Z,2.37
2023-01-02T21:36:38.320Z,2.53
2023-01-02T21:39:26.002Z,5.13
2023-01-02T21:42:18.318Z,9.80
2023-01-02T21:45:05.741Z,5.17
2023-01-02T21:47:52.240Z,4.20
2023-01-02T21:50:38.759Z,2.63
2023-01-02T21:53:25.434Z,3.20
2023-01-02T21:56:13.992Z,2.83
2023-01-02T21:59:00.235Z,2.80
2023-01-02T22:01:46.826Z,2.80
2023-01-02T22:04:34.427Z,2.77
2023-01-02T22:07:31.768Z,3.27
2023-01-02T22:10:19.186Z,3.00
2023-01-02T22:13:07.277Z,3.10
2023-01-02T22:15:53.882Z,3.27
2023-01-02T22:18:40.663Z,3.07
2023-01-02T22:21:27.147Z,3.43
2023-01-02T22:24:13.563Z,3.30
2023-01-02T22:27:04.097Z,3.50
2023-01-02T22:33:03.125Z,3.80
2023-01-02T22:35:49.555Z,4.90
2023-01-02T22:38:43.939Z,4.07
2023-01-02T22:41:43.225Z,4.20
2023-01-02T22:44:31.398Z,4.40
2023-01-02T22:47:26.978Z,5.57
2023-01-02T22:50:21.370Z,3.97
2023-01-02T22:53:11.027Z,5.30
2023-01-02T22:55:58.367Z,4.87
2023-01-02T22:58:45.311Z,4.83
2023-01-02T23:01:34.276Z,6.03
2023-01-02T23:04:24.049Z,4.30
2023-01-02T23:07:24.739Z,3.80
2023-01-02T23:10:12.522Z,3.90
2023-01-02T23:12:59.111Z,4.03
2023-01-02T23:15:59.375Z,3.60
2023-01-02T23:19:03.369Z,3.50
2023-01-02T23:21:53.270Z,3.80
2023-01-02T23:24:39.959Z,3.57
2023-01-02T23:27:26.594Z,3.50
2023-01-02T23:30:13.857Z,3.27
2023-01-02T23:33:00.239Z,3.60
2023-01-02T23:35:46.548Z,3.20
2023-01-02T23:38:35.019Z,3.47
2023-01-02T23:41:21.495Z,3.20
2023-01-02T23:44:08.755Z,3.00
2023-01-02T23:46:55.783Z,3.30
2023-01-02T23:49:42.562Z,2.90
2023-01-02T23:52:28.848Z,3.00
2023-01-02T23:55:16.839Z,3.40
2023-01-02T23:58:03.545Z,3.30
